Neptune Avra — 9HKH6 — position and weather

sailwx.info

Track history (hours):
 
Tides and Currents Weather Stations Pressure Air Temp Water Temp Dewpoint Dewpoint Depression Visibility Wind Speed Wind Dir Waves Ship Positions

Neptune Avra

Last reported at 2014-Nov-26 04:33 UTC. Time now 2014-Nov-26 11:17 UTC.
Position N 37°41' W 000°24'.

Length 155 m; draft 6.2 m.

Type: Cargo ship. MMSI: 248598000.

Date/timePositionNaut miles runAvg speedWind from/ knotsBaromVisibWave heightAir tempDewpointWater temp
2014-Nov-26 04:33N 37°41' W 000°24'2713.7
2014-Nov-26 02:33N 37°21' W 000°48'222 7.6
2014-Nov-24 21:33N 36°05' W 005°08'1515.5
2014-Nov-24 20:33N 35°57' W 005°25'2 0.1
2014-Nov-24 04:27N 35°59' W 005°26'1213.1
2014-Nov-24 03:33N 36°03' W 005°12'191 5.9
2014-Nov-22 19:18N 36°58' W 001°25'1115.1
2014-Nov-22 18:33N 37°06' W 001°14'1515.4
2014-Nov-22 17:33N 37°16' W 000°60'1615.6
2014-Nov-22 16:33N 37°26' W 000°45'1515.5
2014-Nov-22 15:34N 37°37' W 000°31'1515.3
2014-Nov-22 14:33N 37°50' W 000°21'9215.1
2014-Nov-22 08:29N 39°06' E 000°45'1515.2
2014-Nov-22 07:30N 39°18' E 000°57'5345.7
2014-Nov-22 06:20N 40°01' E 001°38'2025.9
2014-Nov-22 05:33N 39°45' E 001°22'1515.0
2014-Nov-22 04:33N 39°57' E 001°34'1515.3
2014-Nov-22 03:33N 40°09' E 001°46'1514.8
2014-Nov-22 02:33N 40°21' E 001°58'1514.9
2014-Nov-22 01:33N 40°33' E 002°09'1514.7
2014-Nov-22 00:33N 40°44' E 002°20'1414.5
2014-Nov-21 23:33N 40°56' E 002°32'1514.6
2014-Nov-21 22:33N 41°08' E 002°44'1514.6
2014-Nov-21 21:32N 41°19' E 002°56'2216.5
2014-Nov-21 20:13N 41°37' E 003°13'911.7
2014-Nov-21 19:30N 41°43' E 003°20'1414.6
2014-Nov-21 18:32N 41°54' E 003°32'2114.6
2014-Nov-21 17:06N 42°11' E 003°49'1014.3
2014-Nov-21 16:23N 42°19' E 003°57'1614.7
2014-Nov-21 15:19N 42°32' E 004°10'1314.4
2014-Nov-21 14:26N 42°42' E 004°20'1314.7
2014-Nov-21 13:33N 42°53' E 004°30'1615.6
2014-Nov-21 12:32N 43°05' E 004°44'1313.3
2014-Nov-21 11:33N 43°15' E 004°55'9 8.6
2014-Nov-21 10:34N 43°24' E 004°52'1 1.0
2014-Nov-21 09:33N 43°24' E 004°51'0 0.0
2014-Nov-21 08:33N 43°24' E 004°51'0 0.0
2014-Nov-21 07:33N 43°24' E 004°51'0 0.0
2014-Nov-21 06:33N 43°24' E 004°51'0 0.0
2014-Nov-21 05:33N 43°24' E 004°51'0 0.0
2014-Nov-21 04:33N 43°24' E 004°51'7 6.7
2014-Nov-21 03:33N 43°21' E 004°59'1111.1
2014-Nov-21 02:32N 43°09' E 005°01'7514.7
2014-Nov-20 21:26N 42°15' E 003°52'1514.7
2014-Nov-20 20:24N 42°03' E 003°39'1314.5
2014-Nov-20 19:31N 41°54' E 003°26'1414.4
2014-Nov-20 18:33N 41°45' E 003°11'8 7.2
2014-Nov-20 17:25N 41°40' E 003°02'1213.6
2014-Nov-20 16:32N 41°34' E 002°49'41 1.9
2014-Nov-19 19:32N 41°09' E 002°06'1414.4
2014-Nov-19 18:33N 40°56' E 001°58'1514.6
2014-Nov-19 17:33N 40°43' E 001°49'1414.5
2014-Nov-19 16:33N 40°30' E 001°40'1414.5
2014-Nov-19 15:33N 40°18' E 001°32'1414.4
2014-Nov-19 14:34N 40°05' E 001°23'1514.6
2014-Nov-19 13:33N 39°52' E 001°15'9014.5
2014-Nov-19 07:21N 38°32' E 000°20'1214.7
2014-Nov-19 06:33N 38°23' E 000°11'4714.5
2014-Nov-19 03:19N 37°43' W 000°22'1114.6
2014-Nov-19 02:33N 37°34' W 000°30'1414.3
2014-Nov-19 01:33N 37°25' W 000°44'1414.3
2014-Nov-19 00:33N 37°15' W 000°57'215 7.9
2014-Nov-17 21:18N 36°04' W 005°10'1419.1
2014-Nov-17 20:33N 35°57' W 005°25'2 0.1
2014-Nov-17 04:32N 35°59' W 005°26'1111.4
2014-Nov-17 03:33N 36°02' W 005°12'  
Track history (hours):
 
Tides and Currents Weather Stations Pressure Air Temp Water Temp Dewpoint Dewpoint Depression Visibility Wind Speed Wind Dir Waves Ship Positions

Neptune Avra

Last reported at 2014-Nov-26 04:33 UTC. Time now 2014-Nov-26 11:17 UTC.
Position N 37°41' W 000°24'.

Length 155 m; draft 6.2 m.

Type: Cargo ship. MMSI: 248598000.

Date/timePositionNaut miles runAvg speedWind from/ knotsBaromVisibWave heightAir tempDewpointWater temp
2014-Nov-26 04:33N 37°41' W 000°24'2713.7
2014-Nov-26 02:33N 37°21' W 000°48'222 7.6
2014-Nov-24 21:33N 36°05' W 005°08'1515.5
2014-Nov-24 20:33N 35°57' W 005°25'2 0.1
2014-Nov-24 04:27N 35°59' W 005°26'1213.1
2014-Nov-24 03:33N 36°03' W 005°12'191 5.9
2014-Nov-22 19:18N 36°58' W 001°25'1115.1
2014-Nov-22 18:33N 37°06' W 001°14'1515.4
2014-Nov-22 17:33N 37°16' W 000°60'1615.6
2014-Nov-22 16:33N 37°26' W 000°45'1515.5
2014-Nov-22 15:34N 37°37' W 000°31'1515.3
2014-Nov-22 14:33N 37°50' W 000°21'9215.1
2014-Nov-22 08:29N 39°06' E 000°45'1515.2
2014-Nov-22 07:30N 39°18' E 000°57'5345.7
2014-Nov-22 06:20N 40°01' E 001°38'2025.9
2014-Nov-22 05:33N 39°45' E 001°22'1515.0
2014-Nov-22 04:33N 39°57' E 001°34'1515.3
2014-Nov-22 03:33N 40°09' E 001°46'1514.8
2014-Nov-22 02:33N 40°21' E 001°58'1514.9
2014-Nov-22 01:33N 40°33' E 002°09'1514.7
2014-Nov-22 00:33N 40°44' E 002°20'1414.5
2014-Nov-21 23:33N 40°56' E 002°32'1514.6
2014-Nov-21 22:33N 41°08' E 002°44'1514.6
2014-Nov-21 21:32N 41°19' E 002°56'2216.5
2014-Nov-21 20:13N 41°37' E 003°13'911.7
2014-Nov-21 19:30N 41°43' E 003°20'1414.6
2014-Nov-21 18:32N 41°54' E 003°32'2114.6
2014-Nov-21 17:06N 42°11' E 003°49'1014.3
2014-Nov-21 16:23N 42°19' E 003°57'1614.7
2014-Nov-21 15:19N 42°32' E 004°10'1314.4
2014-Nov-21 14:26N 42°42' E 004°20'1314.7
2014-Nov-21 13:33N 42°53' E 004°30'1615.6
2014-Nov-21 12:32N 43°05' E 004°44'1313.3
2014-Nov-21 11:33N 43°15' E 004°55'9 8.6
2014-Nov-21 10:34N 43°24' E 004°52'1 1.0
2014-Nov-21 09:33N 43°24' E 004°51'0 0.0
2014-Nov-21 08:33N 43°24' E 004°51'0 0.0
2014-Nov-21 07:33N 43°24' E 004°51'0 0.0
2014-Nov-21 06:33N 43°24' E 004°51'0 0.0
2014-Nov-21 05:33N 43°24' E 004°51'0 0.0
2014-Nov-21 04:33N 43°24' E 004°51'7 6.7
2014-Nov-21 03:33N 43°21' E 004°59'1111.1
2014-Nov-21 02:32N 43°09' E 005°01'7514.7
2014-Nov-20 21:26N 42°15' E 003°52'1514.7
2014-Nov-20 20:24N 42°03' E 003°39'1314.5
2014-Nov-20 19:31N 41°54' E 003°26'1414.4
2014-Nov-20 18:33N 41°45' E 003°11'8 7.2
2014-Nov-20 17:25N 41°40' E 003°02'1213.6
2014-Nov-20 16:32N 41°34' E 002°49'41 1.9
2014-Nov-19 19:32N 41°09' E 002°06'1414.4
2014-Nov-19 18:33N 40°56' E 001°58'1514.6
2014-Nov-19 17:33N 40°43' E 001°49'1414.5
2014-Nov-19 16:33N 40°30' E 001°40'1414.5
2014-Nov-19 15:33N 40°18' E 001°32'1414.4
2014-Nov-19 14:34N 40°05' E 001°23'1514.6
2014-Nov-19 13:33N 39°52' E 001°15'9014.5
2014-Nov-19 07:21N 38°32' E 000°20'1214.7
2014-Nov-19 06:33N 38°23' E 000°11'4714.5
2014-Nov-19 03:19N 37°43' W 000°22'1114.6
2014-Nov-19 02:33N 37°34' W 000°30'1414.3
2014-Nov-19 01:33N 37°25' W 000°44'1414.3
2014-Nov-19 00:33N 37°15' W 000°57'215 7.9
2014-Nov-17 21:18N 36°04' W 005°10'1419.1
2014-Nov-17 20:33N 35°57' W 005°25'2 0.1
2014-Nov-17 04:32N 35°59' W 005°26'1111.4
2014-Nov-17 03:33N 36°02' W 005°12'  

Dump ship's entire track history